sensor_id;sensor_type;location;lat;lon;timestamp;pressure;altitude;pressure_sealevel;temperature;humidity
86042;BME280;76639;53.064;18.818;2024-03-06T14:30:57;102330.98;;;11.97;48.30
86042;BME280;76639;53.064;18.818;2024-03-06T14:34:10;102328.14;;;12.07;48.42
86042;BME280;76639;53.064;18.818;2024-03-06T14:37:23;102331.94;;;12.14;47.91
86042;BME280;76639;53.064;18.818;2024-03-06T14:40:36;102329.59;;;12.19;47.52
86042;BME280;76639;53.064;18.818;2024-03-06T14:43:48;102344.91;;;12.12;45.03
86042;BME280;76639;53.064;18.818;2024-03-06T14:47:01;102336.77;;;11.94;45.90
86042;BME280;76639;53.064;18.818;2024-03-06T14:50:15;102343.20;;;11.85;47.06
86042;BME280;76639;53.064;18.818;2024-03-06T14:53:27;102351.55;;;11.84;45.48
86042;BME280;76639;53.064;18.818;2024-03-06T14:56:40;102339.55;;;11.76;46.38
86042;BME280;76639;53.064;18.818;2024-03-06T14:59:55;102351.10;;;11.70;46.08
86042;BME280;76639;53.064;18.818;2024-03-06T15:03:20;102345.94;;;11.67;46.51
86042;BME280;76639;53.064;18.818;2024-03-06T15:06:34;102357.88;;;11.66;46.73
86042;BME280;76639;53.064;18.818;2024-03-06T15:09:48;102359.05;;;11.64;47.05
86042;BME280;76639;53.064;18.818;2024-03-06T15:13:01;102365.23;;;11.66;47.42
86042;BME280;76639;53.064;18.818;2024-03-06T15:16:15;102362.27;;;11.59;46.42
86042;BME280;76639;53.064;18.818;2024-03-06T15:19:28;102377.78;;;11.41;45.70
86042;BME280;76639;53.064;18.818;2024-03-06T15:22:41;102379.95;;;11.20;46.49
86042;BME280;76639;53.064;18.818;2024-03-06T15:25:55;102380.42;;;10.97;46.92
86042;BME280;76639;53.064;18.818;2024-03-06T15:29:07;102382.27;;;10.69;47.95
86042;BME280;76639;53.064;18.818;2024-03-06T15:32:21;102386.70;;;10.43;48.99
86042;BME280;76639;53.064;18.818;2024-03-06T15:35:34;102388.20;;;10.18;49.38
86042;BME280;76639;53.064;18.818;2024-03-06T15:38:47;102391.95;;;9.98;50.15
86042;BME280;76639;53.064;18.818;2024-03-06T15:42:01;102384.66;;;9.79;50.16
86042;BME280;76639;53.064;18.818;2024-03-06T15:45:15;102385.98;;;9.66;50.40
86042;BME280;76639;53.064;18.818;2024-03-06T15:48:29;102392.13;;;9.48;49.33
86042;BME280;76639;53.064;18.818;2024-03-06T15:51:42;102397.71;;;9.37;50.26
86042;BME280;76639;53.064;18.818;2024-03-06T15:54:55;102395.15;;;9.26;50.53
86042;BME280;76639;53.064;18.818;2024-03-06T15:58:08;102401.71;;;9.14;51.08
86042;BME280;76639;53.064;18.818;2024-03-06T16:01:20;102408.27;;;9.02;51.76
86042;BME280;76639;53.064;18.818;2024-03-06T16:04:34;102403.08;;;8.89;51.72
86042;BME280;76639;53.064;18.818;2024-03-06T20:42:37;102634.83;;;2.75;65.05
86042;BME280;76639;53.064;18.818;2024-03-06T20:45:50;102637.07;;;2.83;64.80
86042;BME280;76639;53.064;18.818;2024-03-06T20:49:03;102642.93;;;2.89;64.52
86042;BME280;76639;53.064;18.818;2024-03-06T20:52:16;102642.76;;;2.92;64.27
86042;BME280;76639;53.064;18.818;2024-03-06T20:55:29;102642.55;;;2.95;64.16
86042;BME280;76639;53.064;18.818;2024-03-06T20:58:41;102645.24;;;2.95;64.20
86042;BME280;76639;53.064;18.818;2024-03-06T21:01:57;102647.11;;;2.95;64.23
86042;BME280;76639;53.064;18.818;2024-03-06T21:05:25;102648.34;;;2.89;64.07
86042;BME280;76639;53.064;18.818;2024-03-06T21:08:43;102637.94;;;2.83;63.98
86042;BME280;76639;53.064;18.818;2024-03-06T21:12:03;102648.02;;;2.80;64.07
86042;BME280;76639;53.064;18.818;2024-03-06T21:15:29;102654.66;;;2.74;64.16
86042;BME280;76639;53.064;18.818;2024-03-06T21:18:51;102649.46;;;2.71;64.24
86042;BME280;76639;53.064;18.818;2024-03-06T21:22:17;102659.45;;;2.69;64.21
86042;BME280;76639;53.064;18.818;2024-03-06T21:25:34;102658.68;;;2.67;64.27
86042;BME280;76639;53.064;18.818;2024-03-06T21:28:46;102666.17;;;2.62;64.33
86042;BME280;76639;53.064;18.818;2024-03-06T21:32:03;102662.96;;;2.55;64.34
86042;BME280;76639;53.064;18.818;2024-03-06T21:35:26;102674.02;;;2.51;64.34
86042;BME280;76639;53.064;18.818;2024-03-06T21:38:40;102678.81;;;2.46;64.40
86042;BME280;76639;53.064;18.818;2024-03-06T21:41:54;102673.62;;;2.43;64.52
86042;BME280;76639;53.064;18.818;2024-03-06T21:45:08;102675.52;;;2.41;64.58
86042;BME280;76639;53.064;18.818;2024-03-06T21:48:35;102678.56;;;2.35;64.62
86042;BME280;76639;53.064;18.818;2024-03-06T21:51:50;102686.05;;;2.30;64.75
86042;BME280;76639;53.064;18.818;2024-03-06T21:55:12;102695.62;;;2.19;64.69
86042;BME280;76639;53.064;18.818;2024-03-06T21:58:31;102680.88;;;2.11;64.84
86042;BME280;76639;53.064;18.818;2024-03-06T22:01:46;102678.64;;;2.03;64.82
86042;BME280;76639;53.064;18.818;2024-03-06T22:04:59;102686.87;;;2.00;65.02
86042;BME280;76639;53.064;18.818;2024-03-06T22:08:13;102678.97;;;1.97;65.16
86042;BME280;76639;53.064;18.818;2024-03-06T22:11:31;102685.29;;;1.96;65.23
86042;BME280;76639;53.064;18.818;2024-03-06T22:15:01;102681.82;;;1.94;65.46
86042;BME280;76639;53.064;18.818;2024-03-06T22:18:26;102690.25;;;1.88;65.41
86042;BME280;76639;53.064;18.818;2024-03-06T22:21:40;102695.88;;;1.83;65.59
86042;BME280;76639;53.064;18.818;2024-03-06T22:24:53;102696.50;;;1.73;65.59
86042;BME280;76639;53.064;18.818;2024-03-06T22:28:06;102698.92;;;1.62;65.45
86042;BME280;76639;53.064;18.818;2024-03-06T22:31:22;102706.43;;;1.55;65.59
86042;BME280;76639;53.064;18.818;2024-03-06T22:34:35;102705.84;;;1.50;65.81
86042;BME280;76639;53.064;18.818;2024-03-06T22:37:47;102704.32;;;1.44;65.87
86042;BME280;76639;53.064;18.818;2024-03-06T22:41:01;102705.47;;;1.40;65.99
86042;BME280;76639;53.064;18.818;2024-03-06T22:44:14;102703.27;;;1.31;66.02
86042;BME280;76639;53.064;18.818;2024-03-06T22:47:28;102702.02;;;1.21;66.23
86042;BME280;76639;53.064;18.818;2024-03-06T22:50:41;102708.35;;;1.20;66.53
86042;BME280;76639;53.064;18.818;2024-03-06T22:53:53;102711.05;;;1.20;66.65
86042;BME280;76639;53.064;18.818;2024-03-06T22:57:06;102709.61;;;1.13;66.79
86042;BME280;76639;53.064;18.818;2024-03-06T23:00:19;102710.67;;;1.10;66.56
86042;BME280;76639;53.064;18.818;2024-03-06T23:03:36;102711.05;;;1.03;66.45
86042;BME280;76639;53.064;18.818;2024-03-06T23:06:49;102708.77;;;0.95;66.27
86042;BME280;76639;53.064;18.818;2024-03-06T23:10:05;102718.97;;;0.89;66.37
86042;BME280;76639;53.064;18.818;2024-03-06T23:13:19;102716.84;;;0.78;66.39
86042;BME280;76639;53.064;18.818;2024-03-06T23:16:31;102720.88;;;0.69;66.40
86042;BME280;76639;53.064;18.818;2024-03-06T23:19:44;102720.22;;;0.64;66.54
86042;BME280;76639;53.064;18.818;2024-03-06T23:22:56;102724.04;;;0.60;66.77
86042;BME280;76639;53.064;18.818;2024-03-06T23:26:10;102730.27;;;0.61;66.87
86042;BME280;76639;53.064;18.818;2024-03-06T23:29:23;102730.27;;;0.61;67.11
86042;BME280;76639;53.064;18.818;2024-03-06T23:32:36;102736.59;;;0.60;67.25
86042;BME280;76639;53.064;18.818;2024-03-06T23:35:51;102732.30;;;0.56;67.22
86042;BME280;76639;53.064;18.818;2024-03-06T23:39:05;102730.69;;;0.52;67.23
86042;BME280;76639;53.064;18.818;2024-03-06T23:42:18;102736.38;;;0.46;67.22
86042;BME280;76639;53.064;18.818;2024-03-06T23:45:33;102733.16;;;0.39;67.15
86042;BME280;76639;53.064;18.818;2024-03-06T23:48:46;102727.13;;;0.34;67.06
86042;BME280;76639;53.064;18.818;2024-03-06T23:52:00;102743.54;;;0.28;67.07
86042;BME280;76639;53.064;18.818;2024-03-06T23:55:14;102735.77;;;0.22;66.97
86042;BME280;76639;53.064;18.818;2024-03-06T23:58:26;102744.94;;;0.18;67.01
